Terminal Aerodrome Forecast
Issued by NWS

Home | Current Version | Previous Version | Text Only | Print | Product List | Glossary On
Versions: 1 2 3 4 5 6 7 8 9 10 11 12 13 14 15 16 17 18 19 20 21 22 23 24 25 26 27 28 29 30 31
000
FTUS43 KDMX 311720
TAFOTM
TAF
KOTM 311720Z 3118/0118 18009KT P6SM VCSH SCT040 BKN080
     FM312100 20008KT P6SM SHRA VCTS SCT040 BKN060CB
     FM010800 25006KT 4SM BR SCT050 BKN250
     FM011500 31007KT P6SM SCT250=

USA.gov is the U.S. government's official web portal to all federal, state and local government web resources and services.